Time;durP1;ratioP1;P1;durP2;ratioP2;P2;SDS_P1;SDS_P2;PMS_P1;PMS_P2;Temp;Humidity;BMP_temperature;BMP_pressure;BME280_temperature;BME280_humidity;BME280_pressure;Samples;Min_cycle;Max_cycle;Signal;HPM_P1;HPM_P2
2024/02/20 00:02:17;;;;;;;12.10;9.60;;;12.30;99.90;;;;;;5106114;28;20588;-80
2024/02/20 00:04:46;;;;;;;15.73;11.05;;;12.30;99.90;;;;;;5098911;28;20230;-78
2024/02/20 00:07:19;;;;;;;15.45;12.30;;;12.30;99.90;;;;;;5099130;28;20215;-80
2024/02/20 00:09:47;;;;;;;15.38;12.18;;;12.30;99.90;;;;;;5094114;28;20294;-78
2024/02/20 00:15:02;;;;;;;12.15;9.88;;;12.30;99.90;;;;;;5096385;28;20292;-79
2024/02/20 00:17:29;;;;;;;15.82;11.55;;;12.30;99.90;;;;;;5092124;28;20231;-80
2024/02/20 00:19:56;;;;;;;13.38;11.95;;;12.20;99.90;;;;;;5094432;28;20302;-79
2024/02/20 00:22:25;;;;;;;14.13;10.93;;;12.20;99.90;;;;;;5093892;28;20231;-80
2024/02/20 00:24:53;;;;;;;12.80;9.60;;;12.30;99.90;;;;;;5094797;28;20216;-80
2024/02/20 00:27:23;;;;;;;12.10;9.15;;;12.30;99.90;;;;;;5093436;28;20310;-77
2024/02/20 00:29:54;;;;;;;11.82;9.70;;;12.20;99.90;;;;;;5092996;28;20314;-77
2024/02/20 00:32:21;;;;;;;13.77;10.43;;;12.30;99.90;;;;;;5093185;28;20223;-79
2024/02/20 00:34:50;;;;;;;14.32;8.48;;;12.20;99.90;;;;;;5094751;28;20226;-79
2024/02/20 00:37:18;;;;;;;9.52;8.63;;;12.20;99.90;;;;;;5080042;28;20315;-77
2024/02/20 00:39:47;;;;;;;12.73;8.35;;;12.20;99.90;;;;;;5085981;28;20227;-79
2024/02/20 00:42:14;;;;;;;14.77;11.00;;;12.20;99.90;;;;;;5094088;28;20309;-79
2024/02/20 00:44:44;;;;;;;9.45;7.72;;;12.10;99.90;;;;;;5094613;28;20218;-79
2024/02/20 00:47:14;;;;;;;10.02;7.60;;;12.20;99.90;;;;;;5094019;28;20230;-79
2024/02/20 00:49:42;;;;;;;8.63;7.82;;;12.10;99.90;;;;;;5092726;28;20223;-79
2024/02/20 00:52:09;;;;;;;11.70;9.18;;;12.10;99.90;;;;;;5101584;28;20226;-77
2024/02/20 00:54:40;;;;;;;14.07;10.85;;;12.10;99.90;;;;;;5096417;28;20683;-77
2024/02/20 00:57:09;;;;;;;12.40;9.75;;;12.00;99.90;;;;;;5092116;28;20609;-77
2024/02/20 00:59:37;;;;;;;12.15;10.43;;;12.10;99.90;;;;;;5092062;28;20219;-77
2024/02/20 01:02:10;;;;;;;9.73;8.65;;;12.10;99.90;;;;;;5093547;28;20350;-77
2024/02/20 01:04:38;;;;;;;16.15;9.10;;;12.10;99.90;;;;;;5077971;28;20303;-77
2024/02/20 01:07:06;;;;;;;13.38;9.07;;;12.10;99.90;;;;;;5089905;28;20238;-79
2024/02/20 01:09:33;;;;;;;12.15;10.27;;;12.10;99.90;;;;;;5085144;28;20556;-79
2024/02/20 01:12:02;;;;;;;15.85;9.98;;;12.00;99.90;;;;;;5083627;28;20322;-79
2024/02/20 01:14:33;;;;;;;10.57;7.10;;;12.10;99.90;;;;;;5093174;28;20687;-77
2024/02/20 01:17:10;;;;;;;10.70;8.80;;;12.10;99.90;;;;;;5077763;28;20227;-80
2024/02/20 01:19:37;;;;;;;8.82;7.97;;;12.00;99.90;;;;;;5078597;28;20219;-80
2024/02/20 01:22:05;;;;;;;10.80;8.98;;;12.00;99.90;;;;;;5093085;28;20220;-77
2024/02/20 01:24:37;;;;;;;10.15;7.80;;;12.00;99.90;;;;;;5081074;28;20238;-80
2024/02/20 01:27:05;;;;;;;9.38;8.40;;;12.00;99.90;;;;;;5084131;28;20265;-77
2024/02/20 01:29:36;;;;;;;10.10;7.40;;;12.00;99.90;;;;;;5083247;28;20681;-77
2024/02/20 01:32:04;;;;;;;13.68;10.80;;;12.00;99.90;;;;;;5088121;28;20555;-80
2024/02/20 01:34:49;;;;;;;9.75;8.70;;;12.00;99.90;;;;;;5092943;28;20299;-78
2024/02/20 01:37:16;;;;;;;8.32;7.15;;;12.00;99.90;;;;;;5082389;28;20231;-78
2024/02/20 01:39:47;;;;;;;9.20;8.00;;;12.00;99.90;;;;;;5069812;28;20302;-78
2024/02/20 01:42:14;;;;;;;10.63;8.05;;;12.00;99.90;;;;;;5092997;28;20318;-80
2024/02/20 01:44:42;;;;;;;8.18;7.07;;;12.00;99.90;;;;;;5092984;28;20325;-81
2024/02/20 01:47:12;;;;;;;11.02;7.97;;;12.00;99.90;;;;;;5092211;28;20298;-80
2024/02/20 01:49:42;;;;;;;11.88;8.93;;;12.00;99.90;;;;;;5092065;28;20541;-81
2024/02/20 01:52:14;;;;;;;9.70;8.35;;;12.00;99.90;;;;;;5052731;28;20231;-80
2024/02/20 01:54:49;;;;;;;14.30;8.10;;;12.00;99.90;;;;;;5042247;28;20224;-80
2024/02/20 01:57:17;;;;;;;8.90;7.65;;;12.00;99.90;;;;;;5072190;28;20227;-77
2024/02/20 01:59:47;;;;;;;11.02;8.07;;;12.00;99.90;;;;;;5080513;28;20695;-77
2024/02/20 02:02:15;;;;;;;11.13;9.60;;;12.00;99.90;;;;;;5093174;28;20230;-77
2024/02/20 02:04:46;;;;;;;10.60;9.10;;;12.00;99.90;;;;;;5091043;28;20238;-77
2024/02/20 02:07:17;;;;;;;9.20;7.43;;;12.10;99.90;;;;;;5091665;28;20720;-77
2024/02/20 02:09:46;;;;;;;13.57;10.27;;;12.10;99.90;;;;;;5092379;28;20678;-80
2024/02/20 02:12:14;;;;;;;10.32;7.88;;;12.20;99.90;;;;;;5091634;28;20255;-80
2024/02/20 02:14:45;;;;;;;8.32;7.47;;;12.20;99.90;;;;;;5092925;28;20219;-77
2024/02/20 02:17:19;;;;;;;10.48;7.78;;;12.20;99.90;;;;;;5082773;28;20231;-77
2024/02/20 02:19:47;;;;;;;13.38;8.88;;;12.20;99.90;;;;;;5092558;28;20254;-77
2024/02/20 02:22:14;;;;;;;7.78;6.60;;;12.30;99.90;;;;;;5092334;28;20234;-78
2024/02/20 02:24:42;;;;;;;11.15;7.18;;;12.40;99.90;;;;;;5093268;28;20219;-77
2024/02/20 02:27:11;;;;;;;6.63;5.85;;;12.40;99.90;;;;;;5089643;28;20292;-77
2024/02/20 02:29:41;;;;;;;14.15;9.27;;;12.40;99.90;;;;;;5093045;28;20215;-80
2024/02/20 02:32:08;;;;;;;9.15;7.75;;;12.40;99.90;;;;;;5073567;28;20530;-80
2024/02/20 02:34:36;;;;;;;11.88;10.63;;;12.50;99.90;;;;;;5086564;28;20237;-78
2024/02/20 02:37:03;;;;;;;10.15;8.40;;;12.40;99.90;;;;;;5085564;28;20219;-79
2024/02/20 02:39:30;;;;;;;8.98;6.90;;;12.50;99.90;;;;;;5102617;28;20626;-79
2024/02/20 02:41:58;;;;;;;8.05;6.80;;;12.50;99.90;;;;;;5087236;28;20231;-78
2024/02/20 02:44:30;;;;;;;8.43;5.78;;;12.50;99.90;;;;;;5079708;28;20318;-79
2024/02/20 02:47:08;;;;;;;5.78;5.10;;;12.50;99.90;;;;;;5096750;28;20226;-80
2024/02/20 02:49:45;;;;;;;6.85;5.63;;;12.50;99.90;;;;;;5094387;28;20757;-78
2024/02/20 02:52:15;;;;;;;6.88;6.18;;;12.50;99.90;;;;;;5095311;28;20250;-77
2024/02/20 02:54:53;;;;;;;7.72;4.88;;;12.50;99.90;;;;;;5088424;28;20298;-77
2024/02/20 02:57:27;;;;;;;5.10;4.63;;;12.50;99.90;;;;;;5091953;28;20254;-78
2024/02/20 03:00:18;;;;;;;7.00;5.70;;;12.50;99.90;;;;;;5103308;28;20246;-77
2024/02/20 03:02:56;;;;;;;8.48;5.93;;;12.50;99.90;;;;;;5095335;28;20250;-77
2024/02/20 03:05:24;;;;;;;6.47;5.82;;;12.50;99.90;;;;;;5094858;28;20311;-79
2024/02/20 03:07:56;;;;;;;7.22;6.10;;;12.50;99.90;;;;;;5096345;28;20327;-79
2024/02/20 03:10:24;;;;;;;7.10;5.43;;;12.50;99.90;;;;;;5102245;28;20233;-79
2024/02/20 03:12:52;;;;;;;9.35;7.45;;;12.50;99.90;;;;;;5088006;28;20235;-79
2024/02/20 03:15:21;;;;;;;5.85;5.25;;;12.50;99.90;;;;;;5096727;28;20227;-79
2024/02/20 03:17:52;;;;;;;6.97;6.28;;;12.50;99.90;;;;;;5095686;28;20227;-79
2024/02/20 03:20:19;;;;;;;8.57;5.90;;;12.50;99.90;;;;;;5096612;28;20609;-77
2024/02/20 03:22:57;;;;;;;7.63;5.10;;;12.50;99.90;;;;;;5087012;28;20320;-79
2024/02/20 03:25:28;;;;;;;7.30;6.13;;;12.50;99.90;;;;;;5109927;28;20298;-77
2024/02/20 03:27:58;;;;;;;6.20;5.32;;;12.50;99.90;;;;;;5096487;28;20235;-77
2024/02/20 03:30:28;;;;;;;6.53;4.55;;;12.50;99.90;;;;;;5100967;28;20227;-77
2024/02/20 03:33:06;;;;;;;9.48;5.63;;;12.50;99.90;;;;;;5096584;28;20227;-77
2024/02/20 03:35:33;;;;;;;8.35;5.72;;;12.40;99.90;;;;;;5095574;28;20310;-79
2024/02/20 03:38:05;;;;;;;7.38;4.50;;;12.40;99.90;;;;;;5095606;28;20758;-80
2024/02/20 03:40:37;;;;;;;6.20;4.70;;;12.40;99.90;;;;;;5096060;28;20565;-80
2024/02/20 03:43:12;;;;;;;5.35;3.97;;;12.30;99.90;;;;;;5095754;28;20227;-80
2024/02/20 03:45:41;;;;;;;5.85;4.72;;;12.40;99.90;;;;;;5095680;28;20298;-78
2024/02/20 03:48:08;;;;;;;6.80;6.10;;;12.30;99.90;;;;;;5095726;28;20257;-78
2024/02/20 03:50:36;;;;;;;7.10;4.28;;;12.30;99.90;;;;;;5096048;28;20310;-78
2024/02/20 03:53:04;;;;;;;6.97;4.90;;;12.30;99.90;;;;;;5093987;28;20227;-78
2024/02/20 03:55:37;;;;;;;4.88;4.20;;;12.30;99.90;;;;;;5095983;28;20237;-78
2024/02/20 03:58:08;;;;;;;3.90;3.50;;;12.30;99.90;;;;;;5077981;28;20325;-78
2024/02/20 04:00:35;;;;;;;5.05;3.20;;;12.20;99.90;;;;;;5095893;28;20686;-80
2024/02/20 04:03:10;;;;;;;4.90;3.58;;;12.20;99.90;;;;;;5095382;28;20257;-80
2024/02/20 04:05:37;;;;;;;3.83;3.47;;;12.10;99.90;;;;;;5095816;28;20227;-80
2024/02/20 04:08:09;;;;;;;4.68;2.90;;;12.10;99.90;;;;;;5095024;28;20258;-80
2024/02/20 04:10:37;;;;;;;6.90;4.50;;;12.00;99.90;;;;;;5095237;28;20231;-80
2024/02/20 04:13:07;;;;;;;4.93;3.35;;;12.00;99.90;;;;;;5094120;28;20223;-78
2024/02/20 04:15:35;;;;;;;3.47;3.15;;;12.00;99.90;;;;;;5094935;28;20243;-80
2024/02/20 04:18:11;;;;;;;4.85;3.38;;;12.00;99.90;;;;;;5094881;28;20231;-80
2024/02/20 04:20:39;;;;;;;5.60;2.67;;;12.00;99.90;;;;;;5095292;28;20219;-78
2024/02/20 04:23:06;;;;;;;3.95;3.53;;;12.00;99.90;;;;;;5085284;28;20222;-80
2024/02/20 04:25:36;;;;;;;2.65;2.45;;;12.00;99.90;;;;;;5094725;28;20227;-78
2024/02/20 04:28:04;;;;;;;2.70;2.30;;;12.00;99.90;;;;;;5087748;28;20279;-78
2024/02/20 04:30:34;;;;;;;2.50;2.33;;;12.00;99.90;;;;;;5098749;28;20219;-78
2024/02/20 04:33:04;;;;;;;2.40;2.20;;;12.10;99.90;;;;;;5094782;28;20227;-79
2024/02/20 04:35:34;;;;;;;3.80;2.55;;;12.10;99.90;;;;;;5095215;28;20699;-78
2024/02/20 04:38:01;;;;;;;6.55;4.68;;;12.00;99.90;;;;;;5100952;28;20223;-76
2024/02/20 04:40:28;;;;;;;2.75;2.05;;;11.90;99.90;;;;;;5094930;28;20219;-76
2024/02/20 04:42:55;;;;;;;5.57;4.85;;;11.90;99.90;;;;;;5094349;28;20258;-78
2024/02/20 04:45:22;;;;;;;4.45;3.13;;;11.90;99.90;;;;;;5094936;28;20227;-78
2024/02/20 04:47:49;;;;;;;2.28;2.08;;;11.90;99.90;;;;;;5094189;28;20219;-77
2024/02/20 04:50:20;;;;;;;5.60;3.65;;;11.90;99.90;;;;;;5085386;28;20292;-78
2024/02/20 04:52:51;;;;;;;3.22;2.28;;;11.90;99.90;;;;;;5094273;28;20232;-76
2024/02/20 04:55:18;;;;;;;5.45;4.70;;;11.90;99.90;;;;;;5094766;28;20253;-78
2024/02/20 04:57:46;;;;;;;3.40;3.03;;;11.90;99.90;;;;;;5094007;28;20227;-76
2024/02/20 05:00:14;;;;;;;2.35;2.15;;;11.90;99.90;;;;;;5094205;28;20668;-79
2024/02/20 05:02:46;;;;;;;5.25;2.42;;;11.80;99.90;;;;;;5094835;28;20238;-76
2024/02/20 05:05:16;;;;;;;2.35;1.58;;;11.70;99.90;;;;;;5094203;28;20272;-78
2024/02/20 05:07:48;;;;;;;2.60;2.17;;;11.60;99.90;;;;;;5095044;28;20306;-76
2024/02/20 05:10:17;;;;;;;8.82;6.10;;;11.70;99.90;;;;;;5093925;28;20228;-80
2024/02/20 05:12:46;;;;;;;6.68;6.03;;;11.60;99.90;;;;;;5094292;28;20288;-76
2024/02/20 05:15:13;;;;;;;3.83;3.15;;;11.60;99.90;;;;;;5094200;28;20215;-77
2024/02/20 05:17:42;;;;;;;2.65;2.10;;;11.50;99.90;;;;;;5094081;28;20227;-76
2024/02/20 05:20:12;;;;;;;1.48;1.33;;;11.50;99.90;;;;;;5093743;28;20215;-76
2024/02/20 05:22:40;;;;;;;3.78;1.73;;;11.50;99.90;;;;;;5085825;28;20675;-78
2024/02/20 05:25:10;;;;;;;7.30;1.38;;;11.50;99.90;;;;;;5094080;28;20299;-78
2024/02/20 05:27:39;;;;;;;4.18;1.88;;;11.50;99.90;;;;;;5094398;28;20216;-77
2024/02/20 05:30:07;;;;;;;2.03;1.77;;;11.40;99.90;;;;;;5093537;28;20247;-80
2024/02/20 05:32:37;;;;;;;2.28;1.90;;;11.40;99.90;;;;;;5093899;28;20246;-79
2024/02/20 05:35:05;;;;;;;3.80;2.40;;;11.50;99.90;;;;;;5093728;28;20223;-78
2024/02/20 05:37:33;;;;;;;2.40;1.60;;;11.50;99.90;;;;;;5094088;28;20680;-78
2024/02/20 05:40:00;;;;;;;3.45;2.50;;;11.50;99.90;;;;;;5093425;28;20226;-78
2024/02/20 05:42:30;;;;;;;2.97;2.22;;;11.50;99.90;;;;;;5094262;28;20243;-77
2024/02/20 05:45:00;;;;;;;3.95;2.60;;;11.50;99.90;;;;;;5094073;28;20225;-77
2024/02/20 05:47:29;;;;;;;1.80;1.70;;;11.50;99.90;;;;;;5094344;28;20211;-79
2024/02/20 05:49:56;;;;;;;3.03;2.60;;;11.50;99.90;;;;;;5093674;28;20219;-78
2024/02/20 05:52:23;;;;;;;2.60;1.50;;;11.50;99.90;;;;;;5093068;28;20235;-78
2024/02/20 05:54:54;;;;;;;3.42;2.35;;;11.50;99.90;;;;;;5093780;28;20246;-79
2024/02/20 05:57:21;;;;;;;3.25;2.15;;;11.50;99.90;;;;;;5093689;28;20249;-79
2024/02/20 05:59:48;;;;;;;3.17;2.47;;;11.50;99.90;;;;;;5099274;28;20223;-78
2024/02/20 06:02:17;;;;;;;3.30;2.90;;;11.40;99.90;;;;;;5084876;28;20322;-78
2024/02/20 06:04:44;;;;;;;2.83;2.40;;;11.40;99.90;;;;;;5108074;28;20305;-78
2024/02/20 06:07:10;;;;;;;9.07;5.25;;;11.30;99.90;;;;;;5092703;28;20235;-79
2024/02/20 06:09:37;;;;;;;13.85;9.60;;;11.30;99.90;;;;;;5093101;28;20221;-78
2024/02/20 06:12:10;;;;;;;12.48;10.15;;;11.40;99.90;;;;;;5093595;28;20231;-78
2024/02/20 06:14:39;;;;;;;12.25;8.38;;;11.30;99.90;;;;;;5092374;28;20288;-78
2024/02/20 06:17:12;;;;;;;7.30;3.53;;;11.30;99.90;;;;;;5093556;28;20222;-78
2024/02/20 06:19:44;;;;;;;5.47;4.90;;;11.30;99.90;;;;;;5093551;28;20302;-80
2024/02/20 06:22:11;;;;;;;5.38;4.85;;;11.40;99.90;;;;;;5092980;28;20226;-78
2024/02/20 06:27:26;;;;;;;5.00;3.50;;;11.40;99.90;;;;;;5097109;28;20227;-78
2024/02/20 06:30:02;;;;;;;2.40;2.20;;;11.40;99.90;;;;;;5085026;28;20215;-77
2024/02/20 06:32:31;;;;;;;2.50;2.03;;;11.40;99.90;;;;;;5092568;28;20227;-78
2024/02/20 06:34:59;;;;;;;5.65;3.10;;;11.40;99.90;;;;;;5092957;28;20556;-78
2024/02/20 06:37:26;;;;;;;2.92;2.40;;;11.40;99.90;;;;;;5084687;28;20224;-79
2024/02/20 06:39:53;;;;;;;3.60;2.33;;;11.40;99.90;;;;;;5083697;28;20234;-77
2024/02/20 06:42:23;;;;;;;2.13;1.92;;;11.40;99.90;;;;;;5098343;28;20269;-77
2024/02/20 06:45:05;;;;;;;7.82;5.45;;;11.40;99.90;;;;;;5093259;28;20215;-77
2024/02/20 06:47:38;;;;;;;3.42;2.88;;;11.40;99.90;;;;;;5092722;28;20231;-77
2024/02/20 06:50:08;;;;;;;4.05;2.78;;;11.40;99.90;;;;;;5092881;28;20602;-80
2024/02/20 06:52:48;;;;;;;4.80;2.28;;;11.40;99.90;;;;;;5092367;28;20227;-79
2024/02/20 06:55:15;;;;;;;2.83;2.63;;;11.40;99.90;;;;;;5092785;28;20317;-80
2024/02/20 06:57:47;;;;;;;7.00;5.20;;;11.40;99.90;;;;;;5083755;28;20310;-80
2024/02/20 07:00:17;;;;;;;5.00;4.50;;;11.40;99.90;;;;;;5098566;28;20222;-80
2024/02/20 07:02:50;;;;;;;4.90;4.25;;;11.30;99.90;;;;;;5092966;28;20258;-79
2024/02/20 07:09:00;;;;;;;3.30;3.00;;;11.30;99.90;;;;;;5087531;28;20294;-77
2024/02/20 07:11:28;;;;;;;4.00;3.30;;;11.30;99.90;;;;;;5099999;28;20227;-77
2024/02/20 07:13:59;;;;;;;3.38;2.40;;;11.30;99.90;;;;;;5092325;28;20223;-77
2024/02/20 07:16:32;;;;;;;2.63;2.42;;;11.20;99.90;;;;;;5092255;28;20306;-78
2024/02/20 07:19:10;;;;;;;2.13;1.70;;;11.20;99.90;;;;;;5097828;28;20299;-77
2024/02/20 07:21:37;;;;;;;2.38;2.10;;;11.20;99.90;;;;;;5095936;28;20227;-79
2024/02/20 07:24:15;;;;;;;3.92;1.92;;;11.20;99.90;;;;;;5096720;28;20288;-77
2024/02/20 07:26:43;;;;;;;2.83;1.90;;;11.10;99.90;;;;;;5079065;28;20652;-77
2024/02/20 07:29:10;;;;;;;5.20;3.40;;;11.10;99.90;;;;;;5096625;28;20397;-77
2024/02/20 07:31:38;;;;;;;4.25;2.65;;;11.20;99.90;;;;;;5095574;28;20277;-77
2024/02/20 07:34:14;;;;;;;2.95;2.10;;;11.10;99.90;;;;;;5102160;28;20273;-79
2024/02/20 07:36:43;;;;;;;3.72;2.17;;;11.20;99.90;;;;;;5100496;28;20326;-79
2024/02/20 07:39:39;;;;;;;3.03;2.72;;;11.20;99.90;;;;;;5096279;28;20726;-79
2024/02/20 07:42:09;;;;;;;4.65;4.07;;;11.30;99.90;;;;;;5083319;28;20219;-77
2024/02/20 07:44:37;;;;;;;5.00;3.03;;;11.20;99.90;;;;;;5096008;28;20314;-77
2024/02/20 07:47:04;;;;;;;3.67;2.70;;;11.20;99.90;;;;;;5096185;28;20223;-77
2024/02/20 07:49:32;;;;;;;3.75;2.80;;;11.20;99.90;;;;;;5095778;28;20310;-79
2024/02/20 07:51:59;;;;;;;17.45;8.45;;;11.20;99.90;;;;;;5096309;28;20230;-77
2024/02/20 07:54:29;;;;;;;2.90;2.22;;;11.20;99.90;;;;;;5086773;28;20227;-77
2024/02/20 07:57:01;;;;;;;10.98;6.35;;;11.20;99.90;;;;;;5096122;28;20277;-77
2024/02/20 07:59:30;;;;;;;7.03;4.68;;;11.30;99.90;;;;;;5095025;28;20737;-78
2024/02/20 08:02:02;;;;;;;5.90;3.75;;;11.40;99.90;;;;;;5101791;28;20583;-77
2024/02/20 08:04:37;;;;;;;3.53;2.63;;;11.30;99.90;;;;;;5094902;28;20227;-77
2024/02/20 08:07:09;;;;;;;8.85;6.95;;;11.30;99.90;;;;;;5096346;28;20222;-77
2024/02/20 08:09:36;;;;;;;4.30;3.72;;;11.30;99.90;;;;;;5093466;28;20229;-79
2024/02/20 08:12:11;;;;;;;5.85;4.03;;;11.30;99.90;;;;;;5095287;28;20276;-79
2024/02/20 08:14:39;;;;;;;4.53;3.00;;;11.30;99.90;;;;;;5089480;28;20230;-79
2024/02/20 08:17:06;;;;;;;5.03;4.05;;;11.40;99.90;;;;;;5096365;28;20307;-79
2024/02/20 08:19:33;;;;;;;7.45;4.93;;;11.40;99.90;;;;;;5087141;28;21083;-77
2024/02/20 08:22:10;;;;;;;8.35;7.20;;;11.40;99.90;;;;;;5094728;28;20234;-77
2024/02/20 08:24:41;;;;;;;5.80;4.90;;;11.40;99.90;;;;;;5095382;28;20230;-77
2024/02/20 08:27:17;;;;;;;5.38;4.47;;;11.50;99.90;;;;;;5094786;28;20290;-77
2024/02/20 08:29:44;;;;;;;10.25;4.75;;;11.50;99.90;;;;;;5094984;28;20223;-79
2024/02/20 08:32:14;;;;;;;3.67;3.38;;;11.50;99.90;;;;;;5094609;28;20226;-80
2024/02/20 08:34:41;;;;;;;4.60;2.40;;;11.50;99.90;;;;;;5094668;28;20224;-79
2024/02/20 08:37:08;;;;;;;5.20;4.07;;;11.50;99.90;;;;;;5095593;28;20233;-79
2024/02/20 08:39:36;;;;;;;12.57;7.32;;;11.50;99.90;;;;;;5094694;28;20226;-79
2024/02/20 08:42:03;;;;;;;6.47;2.75;;;11.60;99.90;;;;;;5095899;28;20717;-79
2024/02/20 08:44:33;;;;;;;6.90;3.55;;;11.60;99.90;;;;;;5095432;28;20223;-79
2024/02/20 08:47:01;;;;;;;5.40;3.40;;;11.60;99.90;;;;;;5086650;28;20250;-78
2024/02/20 08:49:28;;;;;;;5.30;2.90;;;11.70;99.90;;;;;;5099927;28;20219;-76
2024/02/20 08:51:56;;;;;;;5.53;3.10;;;11.60;99.90;;;;;;5093129;28;20223;-76
2024/02/20 08:54:22;;;;;;;4.82;2.72;;;11.60;99.90;;;;;;5094747;28;20242;-76
2024/02/20 08:56:54;;;;;;;5.63;3.25;;;11.50;99.90;;;;;;5094507;28;20231;-80
2024/02/20 08:59:21;;;;;;;4.38;3.92;;;11.50;99.90;;;;;;5094894;28;20227;-78
2024/02/20 09:01:52;;;;;;;7.47;4.00;;;11.50;99.90;;;;;;5084640;28;20223;-79
2024/02/20 09:04:32;;;;;;;6.80;3.63;;;11.60;99.90;;;;;;5097795;28;20241;-80
2024/02/20 09:07:00;;;;;;;11.27;3.47;;;11.60;99.90;;;;;;5095847;28;20687;-80
2024/02/20 09:09:27;;;;;;;7.32;3.72;;;11.50;99.90;;;;;;5094588;28;20227;-80
2024/02/20 09:11:54;;;;;;;14.00;3.83;;;11.40;99.90;;;;;;5094058;28;20322;-78
2024/02/20 09:14:32;;;;;;;8.18;4.10;;;11.40;99.90;;;;;;5089076;28;20227;-79
2024/02/20 09:17:02;;;;;;;10.85;4.00;;;11.40;99.90;;;;;;5104646;28;20983;-77
2024/02/20 09:19:29;;;;;;;10.68;4.60;;;11.20;99.90;;;;;;5094236;28;20223;-77
2024/02/20 09:22:10;;;;;;;14.32;4.80;;;11.30;99.90;;;;;;5094010;28;20227;-80
2024/02/20 09:24:37;;;;;;;9.13;4.65;;;11.20;99.90;;;;;;5094947;28;20628;-78
2024/02/20 09:27:04;;;;;;;10.77;5.32;;;11.20;99.90;;;;;;5094955;28;20222;-76
2024/02/20 09:29:32;;;;;;;13.00;6.05;;;11.20;99.90;;;;;;5099453;28;20234;-77
2024/02/20 09:32:06;;;;;;;13.98;6.07;;;11.20;99.90;;;;;;5094087;28;20250;-77
2024/02/20 09:34:39;;;;;;;22.10;10.15;;;11.20;99.90;;;;;;5099532;28;20272;-78
2024/02/20 09:37:06;;;;;;;16.95;5.40;;;11.20;99.90;;;;;;5094316;28;20610;-78
2024/02/20 09:39:33;;;;;;;11.18;5.13;;;11.20;99.90;;;;;;5093870;28;20227;-78
2024/02/20 09:42:07;;;;;;;12.70;4.57;;;11.30;99.90;;;;;;5093280;28;20247;-78
2024/02/20 09:44:36;;;;;;;17.25;5.35;;;11.30;99.90;;;;;;5094341;28;20305;-76
2024/02/20 09:47:11;;;;;;;17.70;8.48;;;11.30;99.90;;;;;;5093229;28;20277;-77
2024/02/20 09:49:39;;;;;;;16.90;4.53;;;11.20;99.90;;;;;;5085655;28;20271;-80
2024/02/20 09:52:12;;;;;;;11.10;5.40;;;11.30;99.90;;;;;;5093957;28;20219;-78
2024/02/20 09:54:43;;;;;;;12.15;3.92;;;11.30;99.90;;;;;;5099848;28;20265;-77
2024/02/20 09:57:15;;;;;;;11.35;4.55;;;11.30;99.90;;;;;;5093987;28;20569;-79
2024/02/20 09:59:42;;;;;;;10.88;4.50;;;11.40;99.90;;;;;;5099187;28;20652;-79
2024/02/20 10:02:28;;;;;;;10.13;5.28;;;11.50;99.90;;;;;;5092947;28;20219;-78
2024/02/20 10:04:55;;;;;;;12.40;4.63;;;11.40;99.90;;;;;;5093395;28;20288;-79
2024/02/20 10:07:22;;;;;;;14.70;5.28;;;11.50;99.90;;;;;;5093238;28;20227;-77
2024/02/20 10:09:52;;;;;;;13.70;5.80;;;11.50;99.90;;;;;;5085220;28;20302;-78
2024/02/20 10:12:20;;;;;;;18.27;7.95;;;11.50;99.90;;;;;;5108969;28;20564;-79
2024/02/20 10:14:54;;;;;;;10.45;4.93;;;11.50;99.90;;;;;;5093647;28;20233;-80
2024/02/20 10:17:34;;;;;;;15.02;5.63;;;11.50;99.90;;;;;;5091507;28;20219;-80
2024/02/20 10:20:20;;;;;;;10.85;5.18;;;11.60;99.90;;;;;;5091669;28;20227;-80
2024/02/20 10:22:47;;;;;;;20.58;6.85;;;11.60;99.90;;;;;;5092514;28;20219;-80
2024/02/20 10:25:14;;;;;;;14.75;5.57;;;11.60;99.90;;;;;;5092652;28;20242;-78
2024/02/20 10:27:43;;;;;;;10.93;5.15;;;11.60;99.90;;;;;;5086929;28;20214;-76
2024/02/20 10:30:11;;;;;;;15.57;6.00;;;11.60;99.90;;;;;;5093866;28;20219;-78
2024/02/20 10:32:42;;;;;;;11.68;4.60;;;11.70;99.90;;;;;;5087591;28;20541;-79
2024/02/20 10:38:02;;;;;;;13.40;6.93;;;11.70;99.90;;;;;;5077743;28;20226;-78
2024/02/20 10:40:49;;;;;;;12.05;4.70;;;11.70;99.90;;;;;;5092503;28;20219;-77
2024/02/20 10:43:17;;;;;;;16.88;5.40;;;11.80;99.90;;;;;;5081668;28;20231;-78
2024/02/20 10:45:56;;;;;;;12.65;6.07;;;11.70;99.90;;;;;;5082597;28;20288;-77
2024/02/20 10:48:45;;;;;;;13.00;4.60;;;11.70;99.90;;;;;;5075109;28;20220;-77
2024/02/20 10:51:18;;;;;;;13.30;3.67;;;11.80;99.90;;;;;;5075800;28;20219;-77
2024/02/20 10:54:16;;;;;;;;;;;;;;;;;;;;;
2024/02/20 10:56:50;;;;;;;16.50;7.20;;;11.90;99.90;;;;;;5069172;28;20227;-77
2024/02/20 10:59:18;;;;;;;8.73;4.43;;;12.00;99.90;;;;;;5095708;28;20269;-77
2024/02/20 11:01:45;;;;;;;8.30;3.47;;;12.00;99.90;;;;;;5086200;28;20309;-79
2024/02/20 11:04:29;;;;;;;13.02;7.05;;;12.10;99.90;;;;;;5084624;28;20685;-79
2024/02/20 11:06:57;;;;;;;22.50;6.35;;;12.10;99.90;;;;;;5077592;28;20242;-79
2024/02/20 11:09:29;;;;;;;16.38;7.40;;;12.20;99.90;;;;;;5095479;28;20322;-77
2024/02/20 11:12:08;;;;;;;8.32;4.05;;;12.20;99.90;;;;;;5096784;28;20298;-79
2024/02/20 11:14:35;;;;;;;14.02;5.82;;;12.20;99.90;;;;;;5077217;28;20234;-76
2024/02/20 11:17:13;;;;;;;13.93;4.78;;;12.10;99.90;;;;;;5071976;28;20286;-76
2024/02/20 11:19:41;;;;;;;10.38;4.32;;;12.10;99.90;;;;;;5075608;28;20224;-78
2024/02/20 11:22:15;;;;;;;10.45;4.60;;;12.10;99.90;;;;;;5077348;28;20329;-76
2024/02/20 11:24:42;;;;;;;10.32;5.38;;;12.20;99.90;;;;;;5089482;28;20219;-79
2024/02/20 11:27:28;;;;;;;15.30;7.18;;;12.20;99.90;;;;;;5094690;28;20233;-79
2024/02/20 11:29:55;;;;;;;12.93;7.00;;;12.20;99.90;;;;;;5095638;28;20333;-78
2024/02/20 11:32:43;;;;;;;13.55;6.43;;;12.30;99.90;;;;;;5073719;28;20243;-78
2024/02/20 11:35:29;;;;;;;10.70;6.47;;;12.30;99.90;;;;;;5062178;28;20223;-79
2024/02/20 11:37:56;;;;;;;14.15;5.60;;;12.30;99.90;;;;;;5075345;28;20270;-79
2024/02/20 11:40:32;;;;;;;11.88;5.00;;;12.30;99.90;;;;;;5059330;28;20232;-79
2024/02/20 11:43:04;;;;;;;10.48;4.15;;;12.30;99.90;;;;;;5074966;28;20692;-79
2024/02/20 11:45:33;;;;;;;11.60;5.30;;;12.30;99.90;;;;;;5087061;28;20231;-80
2024/02/20 11:48:07;;;;;;;15.85;3.95;;;12.30;99.90;;;;;;5095268;28;20230;-79
2024/02/20 11:50:40;;;;;;;10.30;5.43;;;12.30;99.90;;;;;;5095686;28;20553;-78
2024/02/20 11:53:10;;;;;;;12.18;5.28;;;12.30;99.90;;;;;;5094740;28;20219;-78
2024/02/20 11:55:46;;;;;;;12.13;4.70;;;12.30;99.90;;;;;;5081995;28;20224;-80
2024/02/20 11:58:20;;;;;;;8.10;4.47;;;12.30;99.90;;;;;;5090660;28;20276;-80
2024/02/20 12:00:49;;;;;;;18.08;5.07;;;12.30;99.90;;;;;;5082386;28;20669;-78
2024/02/20 12:03:31;;;;;;;15.95;6.07;;;12.40;99.90;;;;;;5085123;28;20231;-78
2024/02/20 12:06:03;;;;;;;13.05;3.85;;;12.30;99.90;;;;;;5092585;28;20223;-78
2024/02/20 12:08:40;;;;;;;13.27;5.65;;;12.30;99.90;;;;;;5090981;28;20223;-77
2024/02/20 12:11:33;;;;;;;13.52;5.38;;;12.30;99.90;;;;;;5084422;28;20244;-79
2024/02/20 12:14:01;;;;;;;10.95;4.65;;;12.30;99.90;;;;;;5086227;28;20307;-78
2024/02/20 12:16:36;;;;;;;11.25;5.15;;;12.30;99.90;;;;;;5084994;28;20231;-78
2024/02/20 12:19:06;;;;;;;23.88;9.50;;;12.40;99.90;;;;;;5067748;28;20280;-78
2024/02/20 12:21:35;;;;;;;13.13;6.97;;;12.40;99.90;;;;;;5094778;28;20231;-79
2024/02/20 12:24:07;;;;;;;12.77;5.78;;;12.40;99.90;;;;;;5094198;28;20322;-80
2024/02/20 12:26:40;;;;;;;17.15;6.03;;;12.30;99.90;;;;;;5094235;28;20731;-80
2024/02/20 12:29:09;;;;;;;16.45;5.13;;;12.30;99.90;;;;;;5093663;28;20230;-79
2024/02/20 12:31:38;;;;;;;14.02;6.15;;;12.20;99.90;;;;;;5095210;28;20266;-79
2024/02/20 12:34:28;;;;;;;14.00;7.85;;;12.20;99.90;;;;;;5069818;28;20216;-79
2024/02/20 12:37:07;;;;;;;25.65;9.05;;;12.20;99.90;;;;;;5090561;28;20211;-77
2024/02/20 12:39:39;;;;;;;19.20;8.68;;;12.20;99.90;;;;;;5084700;28;20578;-79
2024/02/20 12:42:14;;;;;;;9.88;4.90;;;12.30;99.90;;;;;;5077368;28;20226;-79
2024/02/20 12:44:41;;;;;;;11.32;4.68;;;12.30;99.90;;;;;;5073188;28;20223;-80
2024/02/20 12:47:10;;;;;;;13.07;4.15;;;12.30;99.90;;;;;;5063684;28;20662;-80
2024/02/20 12:49:38;;;;;;;14.35;4.88;;;12.40;99.90;;;;;;5073872;28;20257;-79
2024/02/20 12:52:07;;;;;;;9.20;4.90;;;12.40;99.90;;;;;;5072390;28;20220;-79
2024/02/20 12:54:34;;;;;;;11.32;4.32;;;12.40;99.90;;;;;;5072613;28;20550;-79
2024/02/20 12:57:05;;;;;;;15.13;6.80;;;12.40;99.90;;;;;;5063911;28;20303;-80
2024/02/20 12:59:34;;;;;;;13.10;5.68;;;12.50;99.90;;;;;;5073156;28;20451;-78
2024/02/20 13:02:12;;;;;;;12.73;4.70;;;12.50;99.90;;;;;;5091498;28;20303;-79
2024/02/20 13:04:39;;;;;;;15.90;6.30;;;12.70;99.90;;;;;;5086994;28;20228;-79
2024/02/20 13:07:08;;;;;;;20.00;5.88;;;12.80;99.90;;;;;;5107257;28;20767;-79
2024/02/20 13:09:35;;;;;;;12.55;5.57;;;12.80;99.90;;;;;;5084287;28;20721;-77
2024/02/20 13:12:08;;;;;;;22.83;8.10;;;12.80;99.90;;;;;;5083425;28;20223;-80
2024/02/20 13:14:47;;;;;;;14.88;7.40;;;12.80;99.90;;;;;;5084300;28;20472;-79